createdAt,value
2022-12-15T00:00:37.228Z,94.32
2022-12-15T00:01:37.167Z,94.27
2022-12-15T00:02:37.289Z,93.74
2022-12-15T00:03:37.541Z,94.06
2022-12-15T00:04:37.166Z,94.49
2022-12-15T00:05:37.113Z,93.96
2022-12-15T00:06:37.172Z,93.63
2022-12-15T00:07:37.089Z,93.63
2022-12-15T00:08:37.105Z,93.53
2022-12-15T00:09:37.065Z,93.32
2022-12-15T00:10:37.099Z,93.53
2022-12-15T00:11:37.063Z,92.14
2022-12-15T00:12:37.068Z,91.41
2022-12-15T00:13:37.037Z,91.44
2022-12-15T00:14:37.059Z,91.55
2022-12-15T00:15:37.083Z,92.30
2022-12-15T00:16:37.094Z,93.04
2022-12-15T00:17:36.991Z,93.46
2022-12-15T00:18:37.002Z,93.46
2022-12-15T00:19:36.970Z,93.68
2022-12-15T00:20:36.996Z,92.93
2022-12-15T00:21:36.962Z,93.57
2022-12-15T00:22:36.963Z,94.32
2022-12-15T00:23:36.930Z,94.42
2022-12-15T00:24:36.956Z,93.89
2022-12-15T00:25:36.918Z,93.04
2022-12-15T00:26:36.936Z,91.59
2022-12-15T00:27:36.909Z,91.80
2022-12-15T00:28:36.905Z,92.76
2022-12-15T00:29:36.874Z,93.19
2022-12-15T00:30:36.912Z,92.23
2022-12-15T00:31:36.971Z,93.23
2022-12-15T00:32:36.877Z,93.02
2022-12-15T00:33:36.834Z,92.70
2022-12-15T00:34:36.883Z,92.91
2022-12-15T00:35:36.831Z,93.66
2022-12-15T00:36:36.830Z,94.08
2022-12-15T00:37:36.821Z,94.08
2022-12-15T00:38:36.811Z,94.19
2022-12-15T00:39:36.776Z,94.51
2022-12-15T00:40:36.813Z,94.78
2022-12-15T00:41:36.766Z,94.89
2022-12-15T00:42:36.779Z,94.89
2022-12-15T00:43:36.740Z,94.89
2022-12-15T00:44:36.774Z,93.93
2022-12-15T00:45:36.731Z,93.19
2022-12-15T00:46:36.829Z,92.87
2022-12-15T00:47:36.726Z,93.72
2022-12-15T00:48:36.718Z,94.04
2022-12-15T00:49:36.692Z,94.25
2022-12-15T00:50:36.696Z,94.25
2022-12-15T00:51:36.671Z,93.08
2022-12-15T00:52:36.689Z,93.08
2022-12-15T00:53:36.654Z,93.51
2022-12-15T00:54:36.677Z,94.04
2022-12-15T00:55:36.625Z,93.62
2022-12-15T00:56:36.638Z,93.19
2022-12-15T00:57:36.611Z,93.29
2022-12-15T00:58:36.630Z,92.76
2022-12-15T00:59:36.591Z,94.15
2022-12-15T01:00:36.597Z,94.29
2022-12-15T01:01:36.652Z,93.12
2022-12-15T01:02:36.804Z,93.76
2022-12-15T01:03:37.449Z,93.33
2022-12-15T01:04:36.563Z,93.87
2022-12-15T01:05:36.542Z,93.87
2022-12-15T01:06:36.546Z,94.25
2022-12-15T01:07:36.520Z,94.15
2022-12-15T01:08:36.525Z,93.55
2022-12-15T01:09:36.506Z,93.98
2022-12-15T01:10:36.506Z,94.08
2022-12-15T01:11:36.465Z,94.29
2022-12-15T01:12:36.514Z,93.33
2022-12-15T01:13:36.486Z,93.02
2022-12-15T01:14:36.461Z,93.12
2022-12-15T01:15:36.445Z,93.87
2022-12-15T01:16:36.560Z,94.61
2022-12-15T01:17:36.419Z,94.51
2022-12-15T01:18:36.421Z,93.55
2022-12-15T01:19:36.402Z,93.02
2022-12-15T01:20:36.403Z,92.91
2022-12-15T01:21:36.371Z,92.59
2022-12-15T01:22:36.388Z,92.91
2022-12-15T01:23:36.359Z,93.29
2022-12-15T01:24:36.395Z,92.91
2022-12-15T01:25:36.334Z,93.23
2022-12-15T01:26:36.344Z,93.23
2022-12-15T01:27:36.322Z,93.23
2022-12-15T01:28:36.327Z,94.08
2022-12-15T01:29:36.304Z,94.51
2022-12-15T01:30:36.338Z,94.08
2022-12-15T01:31:36.325Z,93.55
2022-12-15T01:32:36.289Z,94.51
2022-12-15T01:33:36.276Z,95.10
2022-12-15T01:34:36.258Z,94.46
2022-12-15T01:35:36.278Z,92.66
2022-12-15T01:36:36.238Z,92.66
2022-12-15T01:37:36.279Z,93.19
2022-12-15T01:38:36.211Z,93.08
2022-12-15T01:39:36.220Z,93.12
2022-12-15T01:40:36.242Z,92.49
2022-12-15T01:41:36.240Z,92.27
2022-12-15T01:42:36.193Z,92.70
2022-12-15T01:43:36.209Z,93.12
2022-12-15T01:44:36.149Z,93.66
2022-12-15T01:45:36.188Z,94.08
2022-12-15T01:46:36.223Z,94.51
2022-12-15T01:47:36.146Z,94.72
2022-12-15T01:48:36.134Z,94.76
2022-12-15T01:49:36.123Z,94.93
2022-12-15T01:50:36.090Z,95.15
2022-12-15T01:51:36.165Z,95.47
2022-12-15T01:52:36.070Z,95.68
2022-12-15T01:53:36.093Z,95.95
2022-12-15T01:54:36.083Z,94.93
2022-12-15T01:55:36.064Z,94.29
2022-12-15T01:56:37.915Z,94.51
2022-12-15T01:57:36.050Z,94.29
2022-12-15T01:58:36.013Z,93.51
2022-12-15T01:59:36.034Z,93.29
2022-12-15T02:00:36.033Z,93.82
2022-12-15T02:01:36.235Z,94.25
2022-12-15T02:02:40.232Z,94.46
2022-12-15T02:03:36.416Z,94.57
2022-12-15T02:04:35.971Z,94.95
2022-12-15T02:05:35.970Z,93.93
2022-12-15T02:06:35.937Z,92.72
2022-12-15T02:07:35.965Z,92.51
2022-12-15T02:08:35.917Z,92.40
2022-12-15T02:09:35.932Z,93.57
2022-12-15T02:10:35.915Z,93.25
2022-12-15T02:11:35.937Z,92.83
2022-12-15T02:12:35.893Z,92.61
2022-12-15T02:13:35.918Z,92.76
2022-12-15T02:14:35.865Z,93.29
2022-12-15T02:15:35.900Z,93.40
2022-12-15T02:16:35.921Z,92.97
2022-12-15T02:17:35.879Z,93.29
2022-12-15T02:18:35.856Z,93.19
2022-12-15T02:19:35.833Z,92.66
2022-12-15T02:20:35.802Z,92.55
2022-12-15T02:21:35.819Z,93.19
2022-12-15T02:22:35.781Z,93.93
2022-12-15T02:23:35.816Z,93.40
2022-12-15T02:24:35.764Z,93.19
2022-12-15T02:25:35.786Z,93.40
2022-12-15T02:26:35.756Z,93.51
2022-12-15T02:27:35.788Z,93.68
2022-12-15T02:28:35.769Z,93.79
2022-12-15T02:29:35.742Z,93.99
2022-12-15T02:30:35.722Z,94.21
2022-12-15T02:31:35.831Z,93.68
2022-12-15T02:32:35.704Z,93.89
2022-12-15T02:33:35.746Z,93.99
2022-12-15T02:34:35.683Z,94.21
2022-12-15T02:35:35.684Z,92.93
2022-12-15T02:36:35.646Z,92.30
2022-12-15T02:37:35.671Z,92.61
2022-12-15T02:38:35.648Z,93.08
2022-12-15T02:39:35.661Z,93.08
2022-12-15T02:40:35.625Z,93.40
2022-12-15T02:41:35.635Z,93.51
2022-12-15T02:42:35.597Z,93.62
2022-12-15T02:43:35.602Z,93.89
2022-12-15T02:44:35.607Z,94.74
2022-12-15T02:45:35.598Z,95.48
2022-12-15T02:46:35.567Z,96.19
2022-12-15T02:47:35.595Z,97.04
2022-12-15T02:48:35.579Z,97.04
2022-12-15T02:49:35.593Z,96.72
2022-12-15T02:50:35.547Z,96.67
2022-12-15T02:51:35.530Z,96.25
2022-12-15T02:52:35.507Z,95.57
2022-12-15T02:53:35.524Z,94.62
2022-12-15T02:54:35.480Z,94.29
2022-12-15T02:55:35.504Z,94.82
2022-12-15T02:56:35.455Z,95.74
2022-12-15T02:57:35.477Z,96.27
2022-12-15T02:58:35.434Z,96.80
2022-12-15T02:59:35.457Z,97.02
2022-12-15T03:00:35.428Z,96.65
2022-12-15T03:01:35.539Z,95.70
2022-12-15T03:02:35.560Z,94.95
2022-12-15T03:03:36.116Z,94.49
2022-12-15T03:04:35.378Z,94.38
2022-12-15T03:05:35.412Z,95.87
2022-12-15T03:06:35.360Z,96.25
2022-12-15T03:07:35.373Z,96.67
2022-12-15T03:08:35.349Z,96.88
2022-12-15T03:09:35.368Z,97.20
2022-12-15T03:10:35.332Z,97.16
2022-12-15T03:11:35.333Z,97.05
2022-12-15T03:12:35.305Z,96.84
2022-12-15T03:13:35.405Z,96.73
2022-12-15T03:14:35.282Z,96.80
2022-12-15T03:15:35.943Z,96.69
2022-12-15T03:16:35.312Z,96.80
2022-12-15T03:17:35.273Z,96.69
2022-12-15T03:18:35.239Z,96.33
2022-12-15T03:19:35.274Z,95.90
2022-12-15T03:20:35.223Z,96.01
2022-12-15T03:21:35.267Z,96.12
2022-12-15T03:22:35.213Z,95.80
2022-12-15T03:23:35.213Z,95.44
2022-12-15T03:24:35.190Z,95.23
2022-12-15T03:25:35.216Z,94.38
2022-12-15T03:26:35.171Z,94.59
2022-12-15T03:27:35.197Z,94.23
2022-12-15T03:28:35.173Z,93.28
2022-12-15T03:29:35.180Z,93.28
2022-12-15T03:30:35.132Z,93.60
2022-12-15T03:31:35.193Z,93.49
2022-12-15T03:32:35.119Z,92.86
2022-12-15T03:33:35.450Z,92.54
2022-12-15T03:34:35.084Z,92.54
2022-12-15T03:35:35.100Z,92.75
2022-12-15T03:36:35.066Z,92.65
2022-12-15T03:37:35.103Z,93.11
2022-12-15T03:38:35.089Z,93.21
2022-12-15T03:39:35.063Z,93.32
2022-12-15T03:40:35.024Z,93.53
2022-12-15T03:41:35.044Z,93.64
2022-12-15T03:42:35.040Z,93.74
2022-12-15T03:43:35.029Z,93.64
2022-12-15T03:44:34.993Z,93.47
2022-12-15T03:45:35.095Z,93.68
2022-12-15T03:46:34.963Z,93.57
2022-12-15T03:47:34.986Z,93.68
2022-12-15T03:48:34.964Z,93.57
2022-12-15T03:49:34.983Z,93.68
2022-12-15T03:50:34.926Z,93.89
2022-12-15T03:51:34.954Z,94.15
2022-12-15T03:52:34.914Z,94.57
2022-12-15T03:53:35.010Z,94.15
2022-12-15T03:54:34.897Z,93.93
2022-12-15T03:55:34.905Z,93.93
2022-12-15T03:56:34.871Z,93.93
2022-12-15T03:57:34.879Z,94.36
2022-12-15T03:58:34.853Z,94.46
2022-12-15T03:59:34.870Z,94.19
2022-12-15T04:00:34.830Z,94.09
2022-12-15T04:01:35.002Z,94.09
2022-12-15T04:02:34.882Z,94.40
2022-12-15T04:03:35.486Z,94.19
2022-12-15T04:04:34.826Z,94.09
2022-12-15T04:05:34.803Z,93.55
2022-12-15T04:06:34.769Z,94.09
2022-12-15T04:07:34.781Z,94.02
2022-12-15T04:08:34.750Z,94.13
2022-12-15T04:09:34.801Z,93.91
2022-12-15T04:10:35.368Z,93.60
2022-12-15T04:11:34.753Z,93.28
2022-12-15T04:12:34.707Z,93.17
2022-12-15T04:13:34.953Z,93.85
2022-12-15T04:14:34.695Z,93.32
2022-12-15T04:15:34.717Z,93.43
2022-12-15T04:16:34.785Z,93.74
2022-12-15T04:17:34.696Z,93.85
2022-12-15T04:18:34.648Z,94.21
2022-12-15T04:19:34.666Z,94.74
2022-12-15T04:20:34.654Z,94.95
2022-12-15T04:21:34.643Z,94.95
2022-12-15T04:22:34.628Z,95.23
2022-12-15T04:23:34.792Z,95.27
2022-12-15T04:24:34.590Z,94.85
2022-12-15T04:25:34.631Z,94.95
2022-12-15T04:26:34.573Z,94.95
2022-12-15T04:27:34.584Z,94.64
2022-12-15T04:28:34.555Z,94.53
2022-12-15T04:29:34.565Z,95.06
2022-12-15T04:30:34.659Z,95.48
2022-12-15T04:31:34.592Z,95.38
2022-12-15T04:32:34.530Z,94.74
2022-12-15T04:33:34.996Z,94.21
2022-12-15T04:34:34.496Z,94.10
2022-12-15T04:35:34.514Z,93.79
2022-12-15T04:36:34.501Z,94.00
2022-12-15T04:37:34.496Z,93.93
2022-12-15T04:38:34.457Z,94.25
2022-12-15T04:39:34.479Z,94.74
2022-12-15T04:40:34.444Z,95.10
2022-12-15T04:41:34.460Z,95.59
2022-12-15T04:42:34.428Z,94.46
2022-12-15T04:43:34.783Z,93.83
2022-12-15T04:44:34.398Z,94.36
2022-12-15T04:45:34.428Z,95.00
2022-12-15T04:46:34.501Z,95.31
2022-12-15T04:47:34.398Z,94.04
2022-12-15T04:48:34.365Z,93.40
2022-12-15T04:49:34.345Z,93.62
2022-12-15T04:50:34.381Z,94.04
2022-12-15T04:51:34.335Z,94.68
2022-12-15T04:52:34.360Z,94.78
2022-12-15T04:53:34.655Z,95.42
2022-12-15T04:54:34.327Z,95.53
2022-12-15T04:55:34.292Z,95.42
2022-12-15T04:56:34.305Z,95.53
2022-12-15T04:57:34.303Z,94.25
2022-12-15T04:58:34.307Z,93.72
2022-12-15T04:59:34.254Z,93.93
2022-12-15T05:00:34.267Z,94.15
2022-12-15T05:01:34.358Z,94.57
2022-12-15T05:02:34.341Z,95.00
2022-12-15T05:03:34.788Z,93.93
2022-12-15T05:04:34.313Z,93.40
2022-12-15T05:05:34.196Z,93.51
2022-12-15T05:06:34.211Z,94.04
2022-12-15T05:07:34.193Z,94.25
2022-12-15T05:08:34.198Z,94.25
2022-12-15T05:09:34.173Z,93.76
2022-12-15T05:10:34.175Z,93.44
2022-12-15T05:11:34.135Z,93.02
2022-12-15T05:12:34.147Z,93.66
2022-12-15T05:13:34.677Z,94.40
2022-12-15T05:14:34.135Z,94.51
2022-12-15T05:15:34.165Z,94.62
2022-12-15T05:16:34.112Z,94.46
2022-12-15T05:17:36.981Z,94.15
2022-12-15T05:18:34.102Z,94.46
2022-12-15T05:19:34.058Z,94.68
2022-12-15T05:20:34.088Z,94.25
2022-12-15T05:21:34.058Z,93.62
2022-12-15T05:22:34.054Z,93.83
2022-12-15T05:23:34.252Z,94.36
2022-12-15T05:24:34.049Z,94.36
2022-12-15T05:25:34.000Z,92.98
2022-12-15T05:26:34.028Z,92.77
2022-12-15T05:27:33.983Z,93.08
2022-12-15T05:28:34.001Z,92.98
2022-12-15T05:29:33.968Z,93.40
2022-12-15T05:30:33.981Z,92.24
2022-12-15T05:31:34.043Z,92.98
2022-12-15T05:32:33.968Z,92.07
2022-12-15T05:33:34.270Z,92.81
2022-12-15T05:34:33.952Z,93.34
2022-12-15T05:35:33.904Z,93.76
2022-12-15T05:36:33.924Z,92.17
2022-12-15T05:37:33.886Z,92.28
2022-12-15T05:38:33.906Z,93.13
2022-12-15T05:39:33.860Z,93.44
2022-12-15T05:40:33.893Z,93.55
2022-12-15T05:41:33.857Z,91.85
2022-12-15T05:42:33.858Z,92.60
2022-12-15T05:43:34.660Z,93.55
2022-12-15T05:44:33.837Z,94.19
2022-12-15T05:45:33.820Z,93.44
2022-12-15T05:46:33.935Z,92.17
2022-12-15T05:47:33.819Z,93.02
2022-12-15T05:48:33.776Z,92.17
2022-12-15T05:49:33.816Z,91.96
2022-12-15T05:50:33.760Z,93.02
2022-12-15T05:51:33.785Z,92.11
2022-12-15T05:52:33.745Z,92.74
2022-12-15T05:53:34.133Z,93.49
2022-12-15T05:54:33.735Z,93.49
2022-12-15T05:55:33.744Z,93.91
2022-12-15T05:56:33.702Z,92.96
2022-12-15T05:57:33.717Z,92.21
2022-12-15T05:58:33.695Z,92.32
2022-12-15T05:59:33.710Z,93.21
2022-12-15T06:00:33.713Z,92.89
2022-12-15T06:01:33.820Z,92.57
2022-12-15T06:02:33.684Z,92.57
2022-12-15T06:03:34.057Z,93.04
2022-12-15T06:04:33.673Z,93.25
2022-12-15T06:05:33.633Z,93.53
2022-12-15T06:06:33.624Z,93.85
2022-12-15T06:07:33.630Z,93.10
2022-12-15T06:08:33.589Z,93.21
2022-12-15T06:09:33.602Z,92.40
2022-12-15T06:10:33.564Z,92.14
2022-12-15T06:11:33.577Z,92.57
2022-12-15T06:12:33.564Z,93.21
2022-12-15T06:13:33.943Z,93.42
2022-12-15T06:14:33.530Z,93.63
2022-12-15T06:15:33.543Z,93.21
2022-12-15T06:16:33.652Z,93.10
2022-12-15T06:17:33.547Z,92.79
2022-12-15T06:18:33.491Z,92.36
2022-12-15T06:19:33.503Z,93.42
2022-12-15T06:20:33.474Z,92.79
2022-12-15T06:21:33.490Z,92.51
2022-12-15T06:22:33.460Z,92.83
2022-12-15T06:23:33.852Z,92.08
2022-12-15T06:24:33.432Z,92.30
2022-12-15T06:25:33.442Z,93.15
2022-12-15T06:26:33.417Z,92.83
2022-12-15T06:27:33.429Z,92.30
2022-12-15T06:28:33.386Z,92.51
2022-12-15T06:29:33.415Z,92.40
2022-12-15T06:30:33.379Z,92.72
2022-12-15T06:31:33.485Z,92.83
2022-12-15T06:32:33.359Z,92.30
2022-12-15T06:33:33.882Z,92.61
2022-12-15T06:34:33.362Z,92.55
2022-12-15T06:35:33.344Z,92.97
2022-12-15T06:36:33.320Z,92.55
2022-12-15T06:37:33.331Z,93.08
2022-12-15T06:38:33.293Z,93.93
2022-12-15T06:39:33.318Z,94.04
2022-12-15T06:40:37.688Z,93.62
2022-12-15T06:41:33.290Z,93.29
2022-12-15T06:42:33.257Z,93.36
2022-12-15T06:43:33.625Z,93.79
2022-12-15T06:44:33.233Z,93.89
2022-12-15T06:45:33.264Z,94.10
2022-12-15T06:46:33.302Z,94.25
2022-12-15T06:47:33.247Z,94.25
2022-12-15T06:48:33.197Z,94.04
2022-12-15T06:49:33.208Z,93.93
2022-12-15T06:50:33.177Z,93.82
2022-12-15T06:51:33.208Z,93.29
2022-12-15T06:52:33.190Z,93.62
2022-12-15T06:53:33.460Z,93.51
2022-12-15T06:54:33.135Z,93.51
2022-12-15T06:55:33.157Z,93.62
2022-12-15T06:56:34.670Z,93.82
2022-12-15T06:57:33.129Z,93.76
2022-12-15T06:58:33.130Z,94.19
2022-12-15T06:59:33.113Z,94.72
2022-12-15T07:00:33.078Z,95.04
2022-12-15T07:01:33.279Z,94.82
2022-12-15T07:02:33.222Z,94.72
2022-12-15T07:03:33.913Z,94.51
2022-12-15T07:04:33.053Z,94.19
2022-12-15T07:05:33.061Z,93.98
2022-12-15T07:06:33.026Z,94.29
2022-12-15T07:07:33.033Z,94.40
2022-12-15T07:08:39.518Z,94.51
2022-12-15T07:09:33.042Z,94.51
2022-12-15T07:10:33.027Z,94.61
2022-12-15T07:11:32.996Z,94.25
2022-12-15T07:12:32.974Z,94.25
2022-12-15T07:13:33.492Z,94.51
2022-12-15T07:14:32.980Z,94.46
2022-12-15T07:15:32.960Z,94.36
2022-12-15T07:16:33.055Z,93.93
2022-12-15T07:17:32.942Z,93.40
2022-12-15T07:18:32.912Z,92.87
2022-12-15T07:19:32.925Z,93.40
2022-12-15T07:20:32.904Z,93.19
2022-12-15T07:21:32.910Z,93.19
2022-12-15T07:22:32.867Z,92.97
2022-12-15T07:23:52.661Z,93.29
2022-12-15T07:24:32.861Z,93.62
2022-12-15T07:25:32.880Z,93.72
2022-12-15T07:26:32.861Z,93.72
2022-12-15T07:27:32.856Z,93.40
2022-12-15T07:28:33.274Z,93.62
2022-12-15T07:29:32.825Z,93.82
2022-12-15T07:30:38.507Z,93.62
2022-12-15T07:31:32.965Z,93.68
2022-12-15T07:32:32.772Z,93.68
2022-12-15T07:33:33.217Z,93.89
2022-12-15T07:34:32.758Z,94.21
2022-12-15T07:35:32.771Z,93.04
2022-12-15T07:36:32.731Z,92.51
2022-12-15T07:37:32.772Z,92.83
2022-12-15T07:38:32.721Z,92.83
2022-12-15T07:39:32.723Z,92.51
2022-12-15T07:40:32.701Z,92.23
2022-12-15T07:41:32.718Z,92.66
2022-12-15T07:42:32.680Z,93.08
2022-12-15T07:43:33.469Z,93.62
2022-12-15T07:44:32.713Z,93.82
2022-12-15T07:45:32.744Z,94.04
2022-12-15T07:46:32.717Z,94.78
2022-12-15T07:47:32.654Z,94.85
2022-12-15T07:48:32.625Z,94.64
2022-12-15T07:49:32.645Z,94.42
2022-12-15T07:50:32.607Z,93.99
2022-12-15T07:51:32.619Z,92.83
2022-12-15T07:52:32.582Z,91.77
2022-12-15T07:53:32.964Z,91.87
2022-12-15T07:54:32.566Z,92.72
2022-12-15T07:56:04.994Z,93.25
2022-12-15T07:56:38.875Z,93.25
2022-12-15T07:57:32.579Z,93.79
2022-12-15T07:58:32.527Z,93.99
2022-12-15T07:59:32.536Z,93.46
2022-12-15T08:00:32.531Z,92.83
2022-12-15T08:01:32.682Z,93.36
2022-12-15T08:02:32.712Z,93.53
2022-12-15T08:03:33.253Z,92.89
2022-12-15T08:04:32.463Z,91.41
2022-12-15T08:05:32.478Z,92.36
2022-12-15T08:06:32.455Z,92.47
2022-12-15T08:07:32.459Z,93.00
2022-12-15T08:08:32.821Z,93.42
2022-12-15T08:09:32.440Z,93.53
2022-12-15T08:10:32.416Z,93.42
2022-12-15T08:11:32.449Z,93.00
2022-12-15T08:12:32.419Z,93.00
2022-12-15T08:14:01.319Z,91.94
2022-12-15T08:14:32.375Z,92.14
2022-12-15T08:15:32.383Z,92.36
2022-12-15T08:16:32.376Z,91.83
2022-12-15T08:17:32.385Z,92.47
2022-12-15T08:18:32.329Z,92.68
2022-12-15T08:19:32.349Z,93.10
2022-12-15T08:20:32.318Z,93.32
2022-12-15T08:21:32.320Z,93.63
2022-12-15T08:22:32.333Z,93.38
2022-12-15T08:23:32.978Z,93.27
2022-12-15T08:24:32.291Z,91.68
2022-12-15T08:25:32.283Z,91.47
2022-12-15T08:26:32.270Z,92.32
2022-12-15T08:27:32.281Z,92.96
2022-12-15T08:28:32.237Z,92.53
2022-12-15T08:29:50.596Z,91.36
2022-12-15T08:30:32.254Z,90.62
2022-12-15T08:31:32.256Z,91.05
2022-12-15T08:32:32.193Z,91.36
2022-12-15T08:33:32.688Z,91.25
2022-12-15T08:34:32.229Z,92.32
2022-12-15T08:35:55.687Z,92.91
2022-12-15T08:36:32.174Z,93.23
2022-12-15T08:37:32.197Z,93.44
2022-12-15T08:38:32.154Z,93.76
2022-12-15T08:39:32.163Z,94.51
2022-12-15T08:40:32.121Z,95.04
2022-12-15T08:41:32.172Z,95.31
2022-12-15T08:42:32.095Z,95.31
2022-12-15T08:43:32.471Z,94.68
2022-12-15T08:44:32.093Z,93.19
2022-12-15T08:45:32.192Z,92.77
2022-12-15T08:46:32.090Z,93.72
2022-12-15T08:47:32.082Z,93.72
2022-12-15T08:48:32.061Z,93.68
2022-12-15T08:49:32.123Z,93.93
2022-12-15T08:50:32.017Z,94.10
2022-12-15T08:51:32.058Z,94.21
2022-12-15T08:52:32.097Z,94.00
2022-12-15T08:53:32.424Z,93.89
2022-12-15T08:54:31.982Z,93.89
2022-12-15T08:55:31.993Z,94.21
2022-12-15T08:56:31.989Z,94.32
2022-12-15T08:57:31.980Z,94.81
2022-12-15T08:58:31.939Z,94.91
2022-12-15T08:59:31.961Z,94.81
2022-12-15T09:00:31.929Z,94.55
2022-12-15T09:01:32.190Z,94.55
2022-12-15T09:02:32.149Z,94.55
2022-12-15T09:03:32.249Z,94.45
2022-12-15T09:04:32.617Z,94.45
2022-12-15T09:05:31.898Z,94.34
2022-12-15T09:06:31.867Z,94.34
2022-12-15T09:07:31.927Z,94.82
2022-12-15T09:08:31.846Z,94.72
2022-12-15T09:09:31.865Z,93.77
2022-12-15T09:10:31.831Z,94.25
2022-12-15T09:11:31.835Z,93.93
2022-12-15T09:12:31.811Z,93.73
2022-12-15T09:13:32.213Z,93.19
2022-12-15T09:14:31.786Z,93.73
2022-12-15T09:16:07.203Z,93.15
2022-12-15T09:16:31.904Z,93.37
2022-12-15T09:17:31.807Z,92.94
2022-12-15T09:18:31.767Z,92.94
2022-12-15T09:19:31.786Z,92.90
2022-12-15T09:20:31.726Z,92.58
2022-12-15T09:21:31.751Z,92.37
2022-12-15T09:22:31.704Z,92.33
2022-12-15T09:23:32.159Z,91.80
2022-12-15T09:24:35.183Z,91.16
2022-12-15T09:25:31.699Z,91.38
2022-12-15T09:26:31.683Z,92.22
2022-12-15T09:27:31.679Z,92.75
2022-12-15T09:28:31.651Z,91.44
2022-12-15T09:29:31.673Z,92.39
2022-12-15T09:30:31.720Z,92.39
2022-12-15T09:31:31.696Z,92.07
2022-12-15T09:32:31.609Z,92.92
2022-12-15T09:33:32.076Z,93.13
2022-12-15T09:34:31.595Z,93.02
2022-12-15T09:35:31.603Z,91.50
2022-12-15T09:36:31.573Z,92.14
2022-12-15T09:37:31.581Z,92.14
2022-12-15T09:38:31.596Z,91.82
2022-12-15T09:39:31.572Z,92.67
2022-12-15T09:40:31.527Z,93.51
2022-12-15T09:41:31.543Z,93.51
2022-12-15T09:42:31.523Z,93.15
2022-12-15T09:43:35.903Z,92.41
2022-12-15T09:44:31.522Z,91.89
2022-12-15T09:45:31.510Z,91.57
2022-12-15T09:46:31.518Z,91.25
2022-12-15T09:47:31.484Z,91.46
2022-12-15T09:48:31.453Z,90.83
2022-12-15T09:49:31.488Z,90.94
2022-12-15T09:50:31.434Z,90.72
2022-12-15T09:51:31.460Z,90.72
2022-12-15T09:52:31.423Z,90.41
2022-12-15T09:53:54.049Z,89.88
2022-12-15T09:54:31.505Z,91.14
2022-12-15T09:55:31.420Z,91.63
2022-12-15T09:56:31.385Z,90.58
2022-12-15T09:57:31.436Z,89.10
2022-12-15T09:58:31.354Z,89.42
2022-12-15T09:59:31.376Z,89.00
2022-12-15T10:00:31.345Z,88.64
2022-12-15T10:01:31.411Z,88.64
2022-12-15T10:02:31.404Z,89.27
2022-12-15T10:03:31.853Z,88.64
2022-12-15T10:04:31.424Z,88.11
2022-12-15T10:05:57.762Z,88.07
2022-12-15T10:06:33.396Z,87.65
2022-12-15T10:07:31.266Z,86.91
2022-12-15T10:08:31.277Z,86.45
2022-12-15T10:09:31.246Z,86.03
2022-12-15T10:10:31.278Z,85.88
2022-12-15T10:11:31.227Z,84.83
2022-12-15T10:12:31.241Z,84.58
2022-12-15T10:13:31.623Z,84.89
2022-12-15T10:14:31.223Z,84.27
2022-12-15T10:15:31.281Z,83.81
2022-12-15T10:16:31.207Z,83.70
2022-12-15T10:17:31.172Z,83.17
2022-12-15T10:18:31.175Z,83.17
2022-12-15T10:19:31.173Z,82.33
2022-12-15T10:20:31.158Z,82.86
2022-12-15T10:21:31.140Z,83.07
2022-12-15T10:22:31.138Z,83.14
2022-12-15T10:23:31.676Z,84.29
2022-12-15T10:25:07.846Z,81.24
2022-12-15T10:25:31.239Z,81.98
2022-12-15T10:26:31.112Z,83.34
2022-12-15T10:27:31.066Z,83.14
2022-12-15T10:28:31.093Z,83.87
2022-12-15T10:29:31.132Z,83.34
2022-12-15T10:30:31.153Z,82.15
2022-12-15T10:31:31.097Z,80.99
2022-12-15T10:32:31.048Z,81.31
2022-12-15T10:33:31.401Z,81.52
2022-12-15T10:34:31.069Z,80.79
2022-12-15T10:35:30.991Z,80.15
2022-12-15T10:36:31.000Z,80.43
2022-12-15T10:37:30.994Z,81.38
2022-12-15T10:38:30.985Z,80.64
2022-12-15T10:39:30.949Z,79.38
2022-12-15T10:40:30.998Z,80.64
2022-12-15T10:41:30.936Z,79.35
2022-12-15T10:42:30.970Z,80.43
2022-12-15T10:43:31.530Z,80.92
2022-12-15T10:44:32.432Z,79.66
2022-12-15T10:45:30.913Z,80.29
2022-12-15T10:46:30.977Z,81.34
2022-12-15T10:47:30.892Z,81.34
2022-12-15T10:48:30.880Z,80.50
2022-12-15T10:49:30.850Z,80.60
2022-12-15T10:50:30.865Z,80.68
2022-12-15T10:51:30.828Z,80.46
2022-12-15T10:52:30.846Z,81.73
2022-12-15T10:53:31.328Z,81.20
2022-12-15T10:54:30.833Z,80.57
2022-12-15T10:55:30.790Z,81.30
2022-12-15T10:56:33.679Z,80.11
2022-12-15T10:57:30.813Z,78.85
2022-12-15T10:58:30.797Z,78.53
2022-12-15T10:59:30.781Z,78.33
2022-12-15T11:00:30.770Z,79.17
2022-12-15T11:01:30.854Z,78.81
2022-12-15T11:02:30.985Z,78.92
2022-12-15T11:03:31.440Z,78.50
2022-12-15T11:04:30.861Z,77.03
2022-12-15T11:05:30.689Z,77.66
2022-12-15T11:06:30.743Z,78.19
2022-12-15T11:07:30.671Z,78.15
2022-12-15T11:08:30.717Z,76.79
2022-12-15T11:09:30.652Z,77.21
2022-12-15T11:10:30.674Z,76.96
2022-12-15T11:11:30.629Z,74.90
2022-12-15T11:12:30.649Z,74.55
2022-12-15T15:03:13.966Z,73.93
2022-12-15T15:03:27.046Z,90.27
2022-12-15T15:04:27.042Z,90.59
2022-12-15T15:05:27.079Z,90.59
2022-12-15T15:06:27.026Z,90.48
2022-12-15T15:07:26.989Z,90.38
2022-12-15T15:08:27.020Z,90.80
2022-12-15T15:09:26.973Z,90.69
2022-12-15T15:10:26.979Z,90.59
2022-12-15T15:11:26.956Z,90.63
2022-12-15T15:12:26.966Z,90.53
2022-12-15T15:13:26.928Z,90.31
2022-12-15T15:14:26.955Z,90.21
2022-12-15T15:15:26.925Z,90.31
2022-12-15T15:16:26.962Z,90.42
2022-12-15T15:17:26.897Z,90.53
2022-12-15T15:18:26.912Z,90.73
2022-12-15T15:19:26.882Z,90.88
2022-12-15T15:20:26.923Z,91.20
2022-12-15T15:21:26.983Z,91.41
2022-12-15T15:22:26.865Z,91.30
2022-12-15T15:23:26.828Z,91.09
2022-12-15T15:24:26.866Z,90.78
2022-12-15T15:25:26.808Z,90.88
2022-12-15T15:26:26.825Z,91.30
2022-12-15T15:27:26.913Z,91.51
2022-12-15T15:28:26.801Z,91.62
2022-12-15T15:29:26.772Z,91.51
2022-12-15T15:30:26.792Z,91.66
2022-12-15T15:31:26.826Z,91.55
2022-12-15T15:32:26.762Z,91.24
2022-12-15T15:33:26.728Z,91.35
2022-12-15T15:34:26.737Z,91.66
2022-12-15T15:35:26.722Z,91.66
2022-12-15T15:36:26.812Z,91.66
2022-12-15T15:37:26.688Z,91.87
2022-12-15T15:38:26.696Z,91.49
2022-12-15T15:39:26.671Z,91.70
2022-12-15T15:40:26.698Z,92.23
2022-12-15T15:41:26.648Z,92.23
2022-12-15T15:42:32.279Z,92.48
2022-12-15T15:43:26.639Z,92.69
2022-12-15T15:44:26.638Z,92.90
2022-12-15T15:45:26.704Z,93.32
2022-12-15T15:46:26.758Z,93.22
2022-12-15T15:47:26.591Z,93.89
2022-12-15T15:48:26.601Z,93.99
2022-12-15T15:49:26.575Z,94.21
2022-12-15T15:50:26.587Z,94.42
2022-12-15T15:51:26.577Z,94.31
2022-12-15T15:52:26.578Z,94.42
2022-12-15T15:53:26.534Z,94.46
2022-12-15T15:54:26.559Z,94.25
2022-12-15T15:55:26.599Z,94.35
2022-12-15T15:56:26.536Z,94.89
2022-12-15T15:57:26.496Z,94.99
2022-12-15T15:58:26.502Z,94.99
2022-12-15T15:59:26.466Z,95.20
2022-12-15T16:00:26.489Z,95.51
2022-12-15T16:01:26.700Z,95.94
2022-12-15T16:02:26.669Z,96.15
2022-12-15T16:03:26.719Z,95.94
2022-12-15T16:04:26.457Z,94.99
2022-12-15T16:05:26.487Z,94.15
2022-12-15T16:06:26.418Z,94.04
2022-12-15T16:07:26.402Z,95.14
2022-12-15T16:08:26.403Z,96.09
2022-12-15T16:09:26.371Z,96.30
2022-12-15T16:10:26.388Z,96.83
2022-12-15T16:11:26.344Z,96.04
2022-12-15T16:12:26.384Z,95.41
2022-12-15T16:13:26.695Z,94.71
2022-12-15T16:14:26.339Z,94.51
2022-12-15T16:15:26.362Z,94.71
2022-12-15T16:16:26.512Z,94.82
2022-12-15T16:17:26.305Z,94.82
2022-12-15T16:18:26.333Z,95.03
2022-12-15T16:19:26.263Z,95.03
2022-12-15T16:20:26.296Z,94.61
2022-12-15T16:21:26.242Z,94.71
2022-12-15T16:22:26.275Z,95.18
2022-12-15T16:23:26.246Z,94.44
2022-12-15T16:24:26.276Z,94.44
2022-12-15T16:25:26.270Z,95.07
2022-12-15T16:26:26.215Z,95.07
2022-12-15T16:27:26.211Z,95.29
2022-12-15T16:28:26.221Z,95.39
2022-12-15T16:29:26.162Z,95.50
2022-12-15T16:30:26.179Z,95.71
2022-12-15T16:31:26.200Z,95.39
2022-12-15T16:32:26.171Z,95.43
2022-12-15T16:33:26.157Z,95.50
2022-12-15T16:34:26.147Z,95.64
2022-12-15T16:35:26.336Z,95.75
2022-12-15T16:36:26.135Z,95.75
2022-12-15T16:37:26.103Z,95.64
2022-12-15T16:38:26.100Z,95.86
2022-12-15T16:39:26.124Z,95.75
2022-12-15T16:40:26.089Z,96.00
2022-12-15T16:41:26.072Z,96.43